Nearby METAR Reports

 

KHQM - Hoquiam,WA, USA
Updated: 11/14/2019 5:53am
Clear
Clear
 Wind from E
Wind: E 9 mph , 15 km/h
Temperature: 46°F , 8°C
Wind Chill: 41°F , 5°C
Dew Point: 46°F , 8°C
Humidity: 100%
Barometer: 29.98 inHg , 1015.2 hPa
Clouds: Clear
Visibility: 10 miles , 16 km
2019/11/14 13:53 KHQM 141353Z AUTO 10008KT 10SM CLR 08/08 A2998 RMK AO2 SLP157 T00780078